createdAt,value
2022-09-26T00:00:21.995Z,65.73
2022-09-26T00:02:49.239Z,66.46
2022-09-26T00:05:16.143Z,65.35
2022-09-26T00:07:42.819Z,64.92
2022-09-26T00:10:09.788Z,65.38
2022-09-26T00:12:36.758Z,65.71
2022-09-26T00:15:03.675Z,65.85
2022-09-26T00:17:31.844Z,65.90
2022-09-26T00:19:58.554Z,65.51
2022-09-26T00:22:25.215Z,65.84
2022-09-26T00:24:52.327Z,65.31
2022-09-26T00:27:20.407Z,66.00
2022-09-26T00:29:47.863Z,66.05
2022-09-26T00:32:14.846Z,65.97
2022-09-26T00:34:41.528Z,64.99
2022-09-26T00:37:08.222Z,65.59
2022-09-26T00:39:35.256Z,65.55
2022-09-26T00:42:01.974Z,65.96
2022-09-26T00:44:49.542Z,66.41
2022-09-26T00:47:16.463Z,66.09
2022-09-26T00:49:43.693Z,65.97
2022-09-26T00:52:15.875Z,65.51
2022-09-26T00:54:45.366Z,64.73
2022-09-26T00:57:13.160Z,66.08
2022-09-26T00:59:41.982Z,65.92
2022-09-26T01:02:09.441Z,65.93
2022-09-26T01:04:38.133Z,65.79
2022-09-26T01:07:06.203Z,65.93
2022-09-26T01:09:33.314Z,65.46
2022-09-26T01:12:00.603Z,66.16
2022-09-26T01:14:27.836Z,66.58
2022-09-26T01:16:54.898Z,66.65
2022-09-26T01:19:21.568Z,65.56
2022-09-26T01:22:06.678Z,66.09
2022-09-26T01:25:09.292Z,66.30
2022-09-26T01:27:38.928Z,66.94
2022-09-26T01:30:08.796Z,65.99
2022-09-26T01:32:51.379Z,66.47
2022-09-26T01:35:22.645Z,66.95
2022-09-26T01:37:49.401Z,66.27
2022-09-26T01:40:17.992Z,66.45
2022-09-26T01:42:47.946Z,65.98
2022-09-26T01:45:18.480Z,66.23
2022-09-26T01:47:47.670Z,65.87
2022-09-26T01:50:18.317Z,66.79
2022-09-26T01:52:50.837Z,66.32
2022-09-26T01:55:26.966Z,66.50
2022-09-26T01:57:56.410Z,66.48
2022-09-26T02:00:23.100Z,65.66
2022-09-26T02:02:50.201Z,65.80
2022-09-26T02:05:46.788Z,65.97
2022-09-26T02:08:15.877Z,65.94
2022-09-26T02:10:56.159Z,65.79
2022-09-26T02:13:27.972Z,66.43
2022-09-26T02:15:56.425Z,66.41
2022-09-26T02:18:26.287Z,66.53
2022-09-26T02:20:55.778Z,67.33
2022-09-26T02:23:22.546Z,67.65
2022-09-26T02:25:49.481Z,67.79
2022-09-26T02:28:16.269Z,68.21
2022-09-26T02:30:43.511Z,67.77
2022-09-26T02:33:10.474Z,67.33
2022-09-26T02:35:55.607Z,69.03
2022-09-26T02:38:27.479Z,67.86
2022-09-26T02:41:07.716Z,67.05
2022-09-26T02:43:34.672Z,66.73
2022-09-26T02:46:19.582Z,66.18
2022-09-26T02:48:55.865Z,67.32
2022-09-26T02:51:26.898Z,66.89
2022-09-26T02:54:14.048Z,66.18
2022-09-26T02:56:41.007Z,66.62
2022-09-26T02:59:35.139Z,66.34
2022-09-26T03:02:07.569Z,65.77
2022-09-26T03:04:47.445Z,65.30
2022-09-26T03:07:16.933Z,65.57
2022-09-26T03:09:43.973Z,66.02
2022-09-26T03:12:11.685Z,66.59
2022-09-26T03:14:39.476Z,66.56
2022-09-26T03:17:06.653Z,67.00
2022-09-26T03:19:41.829Z,66.36
2022-09-26T03:22:09.245Z,66.63
2022-09-26T03:24:37.004Z,65.02
2022-09-26T03:27:05.166Z,65.41
2022-09-26T03:29:32.935Z,65.51
2022-09-26T03:32:01.181Z,65.89
2022-09-26T03:34:28.028Z,65.97
2022-09-26T03:36:55.646Z,66.45
2022-09-26T03:39:23.278Z,65.51
2022-09-26T03:41:50.215Z,66.18
2022-09-26T03:44:17.533Z,65.92
2022-09-26T03:46:52.320Z,64.86
2022-09-26T03:49:19.287Z,65.31
2022-09-26T03:51:46.078Z,65.80
2022-09-26T03:54:13.106Z,65.71
2022-09-26T03:56:41.243Z,66.66
2022-09-26T03:59:08.393Z,65.75
2022-09-26T04:01:35.539Z,65.34
2022-09-26T04:04:02.749Z,64.98
2022-09-26T04:06:30.117Z,66.00
2022-09-26T04:08:59.041Z,66.00
2022-09-26T04:11:26.943Z,65.91
2022-09-26T04:13:54.190Z,66.13
2022-09-26T04:16:22.792Z,65.92
2022-09-26T04:18:56.691Z,67.08
2022-09-26T04:21:24.593Z,66.83
2022-09-26T04:23:52.863Z,66.14
2022-09-26T04:26:23.419Z,66.25
2022-09-26T04:28:55.070Z,66.10
2022-09-26T04:31:23.250Z,66.43
2022-09-26T04:33:50.542Z,66.32
2022-09-26T04:36:17.672Z,66.94
2022-09-26T04:38:46.095Z,66.68
2022-09-26T04:41:15.115Z,66.33
2022-09-26T04:43:42.199Z,66.26
2022-09-26T04:46:10.819Z,66.56
2022-09-26T04:48:37.964Z,66.60
2022-09-26T04:51:07.203Z,66.52
2022-09-26T04:53:34.761Z,66.34
2022-09-26T04:56:02.142Z,66.59
2022-09-26T04:58:32.575Z,67.64
2022-09-26T05:01:03.832Z,67.99
2022-09-26T05:03:33.231Z,66.57
2022-09-26T05:06:01.585Z,66.36
2022-09-26T05:08:28.363Z,66.29
2022-09-26T05:10:56.130Z,66.42
2022-09-26T05:13:23.573Z,67.00
2022-09-26T05:15:53.259Z,66.89
2022-09-26T05:18:20.998Z,65.15
2022-09-26T05:20:48.343Z,66.57
2022-09-26T05:23:43.657Z,66.70
2022-09-26T05:26:21.219Z,66.73
2022-09-26T05:28:48.991Z,66.14
2022-09-26T05:31:16.492Z,66.27
2022-09-26T05:33:44.657Z,66.73
2022-09-26T05:36:11.568Z,66.35
2022-09-26T05:38:40.396Z,66.41
2022-09-26T05:41:07.245Z,66.32
2022-09-26T05:43:34.970Z,65.98
2022-09-26T05:46:06.307Z,66.48
2022-09-26T05:48:34.414Z,66.45
2022-09-26T05:51:21.130Z,65.49
2022-09-26T05:53:48.554Z,66.01
2022-09-26T05:56:19.001Z,66.43
2022-09-26T05:58:48.177Z,66.23
2022-09-26T06:01:18.793Z,66.16
2022-09-26T06:03:46.661Z,66.62
2022-09-26T06:06:14.986Z,66.33
2022-09-26T06:08:42.150Z,65.72
2022-09-26T06:11:10.789Z,66.13
2022-09-26T06:13:37.757Z,66.58
2022-09-26T06:16:06.566Z,66.70
2022-09-26T06:18:36.828Z,66.63
2022-09-26T06:21:04.164Z,66.43
2022-09-26T06:23:31.833Z,66.64
2022-09-26T06:26:00.318Z,66.52
2022-09-26T06:28:27.466Z,67.18
2022-09-26T06:30:54.411Z,67.30
2022-09-26T06:33:23.209Z,66.55
2022-09-26T06:36:04.254Z,66.42
2022-09-26T06:38:31.438Z,66.56
2022-09-26T06:41:03.997Z,67.01
2022-09-26T06:43:32.157Z,66.93
2022-09-26T06:46:00.167Z,66.70
2022-09-26T06:48:27.646Z,66.82
2022-09-26T06:50:57.066Z,67.18
2022-09-26T06:53:24.246Z,66.93
2022-09-26T06:55:50.978Z,67.19
2022-09-26T06:58:18.171Z,66.31
2022-09-26T07:00:46.902Z,66.19
2022-09-26T07:03:15.564Z,65.69
2022-09-26T07:05:45.226Z,67.30
2022-09-26T07:08:12.192Z,66.76
2022-09-26T07:10:38.897Z,67.66
2022-09-26T07:13:06.573Z,67.21
2022-09-26T07:15:34.431Z,67.01
2022-09-26T07:18:03.068Z,66.99
2022-09-26T07:20:34.835Z,67.13
2022-09-26T07:23:02.850Z,67.05
2022-09-26T07:25:31.950Z,67.89
2022-09-26T07:27:59.830Z,67.74
2022-09-26T07:30:28.312Z,66.97
2022-09-26T07:33:03.124Z,66.30
2022-09-26T07:35:34.113Z,66.76
2022-09-26T07:38:00.961Z,66.49
2022-09-26T07:40:27.938Z,66.74
2022-09-26T07:43:18.502Z,68.40
2022-09-26T07:46:04.314Z,69.06
2022-09-26T07:48:49.997Z,68.09
2022-09-26T07:51:19.865Z,67.48
2022-09-26T07:53:47.291Z,67.20
2022-09-26T07:56:16.508Z,68.10
2022-09-26T07:58:43.498Z,68.17
2022-09-26T08:01:11.554Z,68.42
2022-09-26T08:03:44.532Z,67.34
2022-09-26T08:06:14.756Z,66.45
2022-09-26T08:08:43.323Z,66.89
2022-09-26T08:11:13.345Z,67.42
2022-09-26T08:13:43.335Z,68.29
2022-09-26T08:16:10.858Z,68.40
2022-09-26T08:18:38.221Z,67.57
2022-09-26T08:21:05.785Z,67.02
2022-09-26T08:23:33.620Z,68.58
2022-09-26T08:26:06.897Z,68.23
2022-09-26T08:28:34.610Z,67.61
2022-09-26T08:31:03.023Z,69.52
2022-09-26T08:33:30.642Z,68.60
2022-09-26T08:36:02.562Z,67.88
2022-09-26T08:38:30.570Z,66.17
2022-09-26T08:41:01.802Z,66.55
2022-09-26T08:43:51.689Z,66.11
2022-09-26T08:46:38.845Z,66.80
2022-09-26T08:49:19.130Z,67.07
2022-09-26T08:51:46.933Z,67.99
2022-09-26T08:54:23.921Z,66.95
2022-09-26T08:56:52.519Z,64.85
2022-09-26T08:59:25.306Z,67.78
2022-09-26T09:01:52.748Z,65.45
2022-09-26T09:04:25.062Z,63.64
2022-09-26T09:06:53.744Z,62.91
2022-09-26T09:09:20.884Z,65.29
2022-09-26T09:11:50.870Z,63.62
2022-09-26T09:14:21.201Z,64.09
2022-09-26T09:17:02.700Z,65.15
2022-09-26T09:19:48.876Z,64.63
2022-09-26T09:22:38.949Z,63.58
2022-09-26T09:25:08.997Z,63.71
2022-09-26T09:27:58.532Z,63.28
2022-09-26T09:30:30.977Z,65.10
2022-09-26T09:33:08.834Z,62.48
2022-09-26T09:35:39.161Z,62.29
2022-09-26T09:38:11.053Z,60.81
2022-09-26T09:40:41.439Z,62.08
2022-09-26T09:43:15.212Z,60.08
2022-09-26T09:45:47.383Z,61.79
2022-09-26T09:48:14.343Z,59.94
2022-09-26T09:50:53.781Z,56.44
2022-09-26T09:53:41.168Z,59.66
2022-09-26T09:56:14.124Z,58.84
2022-09-26T09:58:59.794Z,59.22
2022-09-26T10:01:28.126Z,59.25
2022-09-26T10:04:01.378Z,61.80
2022-09-26T10:06:45.265Z,62.51
2022-09-26T10:09:39.283Z,61.33
2022-09-26T10:12:19.457Z,57.42
2022-09-26T10:15:03.260Z,57.41
2022-09-26T10:17:32.009Z,57.77
2022-09-26T10:19:59.353Z,55.20
2022-09-26T10:22:37.958Z,55.29
2022-09-26T10:25:08.936Z,56.01
2022-09-26T10:27:38.110Z,55.79
2022-09-26T10:30:06.265Z,56.34
2022-09-26T10:32:33.617Z,55.02
2022-09-26T10:35:24.379Z,54.43
2022-09-26T10:38:01.945Z,59.79
2022-09-26T10:40:48.347Z,58.16
2022-09-26T10:43:22.877Z,56.13
2022-09-26T10:45:53.417Z,57.55
2022-09-26T10:48:24.468Z,54.83
2022-09-26T10:51:00.627Z,52.92
2022-09-26T10:53:34.396Z,54.87
2022-09-26T10:56:02.202Z,55.36
2022-09-26T10:58:30.091Z,58.57
2022-09-26T11:00:59.554Z,56.92
2022-09-26T11:03:40.414Z,59.65
2022-09-26T11:06:23.901Z,55.97
2022-09-26T11:08:54.110Z,54.92
2022-09-26T11:11:22.553Z,56.84
2022-09-26T11:13:55.904Z,55.93
2022-09-26T11:16:23.002Z,56.51
2022-09-26T11:18:59.067Z,54.49
2022-09-26T11:21:29.508Z,54.25
2022-09-26T11:24:03.193Z,52.66
2022-09-26T11:26:39.959Z,50.56
2022-09-26T11:29:14.958Z,53.72
2022-09-26T11:31:44.190Z,55.50
2022-09-26T11:34:14.096Z,53.94
2022-09-26T11:37:01.664Z,51.26
2022-09-26T11:39:37.717Z,51.03
2022-09-26T11:42:25.037Z,48.31
2022-09-26T11:44:54.031Z,53.69
2022-09-26T11:47:47.692Z,54.10
2022-09-26T11:50:24.184Z,51.12
2022-09-26T11:52:56.925Z,50.64
2022-09-26T11:55:42.560Z,50.25
2022-09-26T11:58:16.227Z,52.94
2022-09-26T12:01:01.890Z,54.59
2022-09-26T12:03:37.103Z,52.96
2022-09-26T12:06:04.463Z,54.45
2022-09-26T12:08:38.937Z,54.19
2022-09-26T12:11:19.321Z,51.98
2022-09-26T12:13:58.647Z,54.68
2022-09-26T12:16:26.757Z,52.02
2022-09-26T12:18:56.594Z,53.00
2022-09-26T12:21:23.294Z,54.80
2022-09-26T12:23:53.899Z,54.09
2022-09-26T12:26:21.359Z,53.33
2022-09-26T12:28:54.237Z,53.00
2022-09-26T12:31:21.798Z,54.04
2022-09-26T12:34:02.428Z,52.36
2022-09-26T12:36:31.279Z,52.47
2022-09-26T12:39:10.365Z,50.05
2022-09-26T12:41:44.924Z,51.49
2022-09-26T12:44:19.648Z,50.41
2022-09-26T12:46:53.745Z,54.25
2022-09-26T12:49:20.580Z,52.19
2022-09-26T12:51:48.947Z,51.32
2022-09-26T12:54:15.653Z,49.50
2022-09-26T12:56:54.911Z,49.22
2022-09-26T12:59:45.286Z,49.85
2022-09-26T13:02:12.503Z,52.62
2022-09-26T13:04:59.314Z,51.67
2022-09-26T13:07:43.838Z,49.79
2022-09-26T13:10:10.899Z,46.88
2022-09-26T13:12:52.885Z,47.52
2022-09-26T13:15:44.781Z,47.90
2022-09-26T13:18:16.308Z,49.21
2022-09-26T13:20:43.861Z,49.34
2022-09-26T13:23:19.695Z,49.76
2022-09-26T13:25:50.795Z,49.65
2022-09-26T13:28:21.262Z,48.87
2022-09-26T13:30:54.727Z,48.01
2022-09-26T13:33:30.047Z,50.64
2022-09-26T13:35:57.065Z,50.75
2022-09-26T13:38:43.254Z,52.24
2022-09-26T13:41:33.277Z,51.44
2022-09-26T13:44:05.100Z,52.76
2022-09-26T13:46:40.007Z,50.50
2022-09-26T13:49:07.190Z,50.59
2022-09-26T13:51:40.948Z,52.44
2022-09-26T13:54:19.807Z,51.39
2022-09-26T13:56:49.157Z,52.38
2022-09-26T13:59:17.912Z,51.29
2022-09-26T14:02:03.210Z,54.42
2022-09-26T14:04:36.349Z,52.16
2022-09-26T14:07:03.161Z,53.15
2022-09-26T14:09:45.584Z,52.34
2022-09-26T14:12:20.350Z,50.04
2022-09-26T14:14:51.182Z,51.15
2022-09-26T14:17:37.793Z,51.15
2022-09-26T14:20:05.820Z,49.70
2022-09-26T14:22:34.703Z,49.28
2022-09-26T14:25:02.506Z,48.72
2022-09-26T14:27:36.362Z,49.07
2022-09-26T14:30:22.593Z,50.08
2022-09-26T14:32:49.561Z,54.12
2022-09-26T14:35:17.051Z,50.67
2022-09-26T14:37:43.878Z,51.05
2022-09-26T14:40:10.837Z,50.59
2022-09-26T14:42:43.604Z,50.88
2022-09-26T14:45:16.700Z,50.74
2022-09-26T14:47:44.677Z,50.83
2022-09-26T14:50:16.397Z,50.85
2022-09-26T14:52:49.703Z,51.30
2022-09-26T14:55:16.681Z,51.40
2022-09-26T14:57:43.385Z,51.24
2022-09-26T15:00:29.198Z,51.46
2022-09-26T15:03:00.260Z,52.20
2022-09-26T15:05:28.170Z,52.52
2022-09-26T15:07:55.293Z,53.02
2022-09-26T15:10:23.928Z,52.87
2022-09-26T15:12:56.161Z,52.86
2022-09-26T15:15:50.553Z,52.70
2022-09-26T15:18:17.289Z,53.04
2022-09-26T15:20:44.915Z,53.57
2022-09-26T15:23:27.767Z,53.53
2022-09-26T15:25:56.340Z,54.05
2022-09-26T15:28:24.468Z,53.51
2022-09-26T15:31:11.827Z,53.57
2022-09-26T15:33:39.614Z,52.94
2022-09-26T15:36:09.393Z,53.24
2022-09-26T15:38:36.068Z,53.73
2022-09-26T15:41:04.319Z,53.71
2022-09-26T15:43:34.512Z,54.11
2022-09-26T15:46:07.302Z,54.51
2022-09-26T15:48:36.698Z,54.42
2022-09-26T15:51:28.677Z,54.46
2022-09-26T15:53:56.723Z,55.15
2022-09-26T15:56:23.387Z,55.20
2022-09-26T15:58:56.095Z,55.08
2022-09-26T16:01:25.770Z,55.02
2022-09-26T16:03:53.988Z,55.31
2022-09-26T16:06:20.731Z,55.72
2022-09-26T16:08:49.614Z,56.88
2022-09-26T16:11:16.688Z,56.25
2022-09-26T16:13:45.743Z,56.82
2022-09-26T16:16:14.243Z,56.83
2022-09-26T16:18:47.197Z,57.71
2022-09-26T16:21:15.063Z,57.56
2022-09-26T16:23:46.420Z,56.85
2022-09-26T16:26:40.405Z,56.38
2022-09-26T16:29:08.810Z,57.09
2022-09-26T16:31:39.361Z,58.10
2022-09-26T16:34:16.791Z,57.95
2022-09-26T16:36:43.779Z,57.45
2022-09-26T16:39:13.628Z,57.40
2022-09-26T16:42:02.435Z,58.06
2022-09-26T16:44:35.224Z,58.11
2022-09-26T16:47:05.266Z,58.79
2022-09-26T16:49:34.577Z,60.76
2022-09-26T16:52:10.567Z,60.12
2022-09-26T16:54:37.533Z,59.82
2022-09-26T16:57:04.210Z,59.98
2022-09-26T16:59:32.319Z,59.34
2022-09-26T17:02:00.177Z,59.13
2022-09-26T17:04:34.354Z,59.12
2022-09-26T17:07:09.593Z,58.99
2022-09-26T17:09:36.724Z,59.77
2022-09-26T17:12:03.821Z,59.96
2022-09-26T17:14:31.484Z,59.88
2022-09-26T17:16:58.300Z,60.65
2022-09-26T17:19:27.140Z,59.64
2022-09-26T17:21:54.961Z,60.43
2022-09-26T17:24:26.228Z,59.96
2022-09-26T17:27:05.258Z,59.92
2022-09-26T17:29:33.401Z,58.69
2022-09-26T17:32:00.746Z,59.50
2022-09-26T17:34:28.421Z,60.15
2022-09-26T17:36:56.891Z,60.71
2022-09-26T17:39:26.177Z,60.90
2022-09-26T17:41:53.524Z,59.74
2022-09-26T17:44:23.274Z,59.88
2022-09-26T17:46:51.640Z,60.19
2022-09-26T17:49:26.909Z,60.00
2022-09-26T17:51:56.255Z,59.52
2022-09-26T17:54:26.352Z,59.39
2022-09-26T17:56:53.215Z,59.63
2022-09-26T17:59:24.381Z,60.19
2022-09-26T18:01:52.519Z,60.38
2022-09-26T18:04:19.929Z,60.03
2022-09-26T18:06:46.725Z,60.07
2022-09-26T18:09:16.582Z,59.70
2022-09-26T18:11:44.360Z,59.41
2022-09-26T18:14:17.215Z,59.85
2022-09-26T18:16:46.551Z,60.22
2022-09-26T18:19:13.307Z,61.49
2022-09-26T18:21:40.604Z,60.96
2022-09-26T18:24:13.233Z,60.12
2022-09-26T18:26:47.642Z,60.47
2022-09-26T18:29:16.436Z,60.50
2022-09-26T18:31:45.279Z,61.31
2022-09-26T18:34:13.080Z,59.86
2022-09-26T18:36:40.563Z,60.10
2022-09-26T18:39:07.792Z,60.00
2022-09-26T18:41:35.280Z,60.72
2022-09-26T18:44:03.734Z,60.25
2022-09-26T18:46:30.781Z,59.96
2022-09-26T18:48:58.642Z,59.86
2022-09-26T18:51:26.229Z,59.39
2022-09-26T18:53:53.559Z,59.59
2022-09-26T18:56:40.188Z,59.79
2022-09-26T18:59:10.242Z,60.47
2022-09-26T19:01:38.526Z,60.69
2022-09-26T19:04:06.781Z,60.28
2022-09-26T19:06:37.666Z,60.42
2022-09-26T19:09:06.260Z,60.95
2022-09-26T19:11:35.624Z,60.25
2022-09-26T19:14:12.197Z,61.42
2022-09-26T19:16:39.646Z,61.93
2022-09-26T19:19:06.761Z,61.05
2022-09-26T19:21:39.432Z,61.28
2022-09-26T19:24:20.326Z,60.36
2022-09-26T19:26:48.399Z,60.10
2022-09-26T19:29:23.942Z,60.99
2022-09-26T19:31:51.668Z,60.03
2022-09-26T19:34:18.867Z,60.55
2022-09-26T19:36:45.787Z,60.43
2022-09-26T19:39:13.108Z,59.78
2022-09-26T19:41:46.229Z,60.81
2022-09-26T19:44:13.417Z,60.90
2022-09-26T19:46:40.805Z,60.15
2022-09-26T19:49:07.966Z,60.44
2022-09-26T19:51:40.655Z,60.08
2022-09-26T19:54:09.942Z,60.56
2022-09-26T19:56:36.862Z,61.20
2022-09-26T19:59:04.593Z,61.49
2022-09-26T20:01:31.935Z,61.74
2022-09-26T20:03:59.433Z,61.40
2022-09-26T20:06:26.274Z,60.37
2022-09-26T20:08:57.668Z,61.03
2022-09-26T20:11:27.645Z,61.03
2022-09-26T20:14:13.303Z,61.08
2022-09-26T20:16:41.545Z,61.24
2022-09-26T20:19:10.396Z,61.60
2022-09-26T20:21:37.262Z,61.80
2022-09-26T20:24:04.338Z,60.86
2022-09-26T20:26:32.714Z,60.78
2022-09-26T20:28:59.545Z,61.52
2022-09-26T20:31:27.630Z,61.02
2022-09-26T20:33:55.651Z,60.83
2022-09-26T20:36:24.748Z,61.60
2022-09-26T20:38:51.776Z,61.52
2022-09-26T20:41:18.597Z,61.71
2022-09-26T20:43:47.033Z,60.87
2022-09-26T20:46:14.987Z,62.04
2022-09-26T20:48:42.212Z,62.19
2022-09-26T20:51:13.948Z,61.63
2022-09-26T20:53:41.058Z,61.92
2022-09-26T20:56:18.580Z,63.11
2022-09-26T20:58:45.596Z,62.46
2022-09-26T21:01:13.789Z,62.58
2022-09-26T21:03:44.433Z,62.01
2022-09-26T21:06:22.520Z,62.97
2022-09-26T21:08:49.647Z,62.05
2022-09-26T21:11:17.611Z,61.91
2022-09-26T21:13:44.419Z,61.98
2022-09-26T21:16:14.935Z,62.00
2022-09-26T21:18:43.062Z,63.35
2022-09-26T21:21:13.586Z,63.05
2022-09-26T21:23:42.069Z,63.00
2022-09-26T21:26:19.008Z,63.13
2022-09-26T21:28:45.802Z,62.49
2022-09-26T21:31:39.126Z,62.23
2022-09-26T21:34:05.930Z,61.94
2022-09-26T21:36:35.187Z,62.61
2022-09-26T21:39:02.263Z,61.91
2022-09-26T21:41:29.430Z,62.54
2022-09-26T21:43:58.089Z,62.35
2022-09-26T21:46:27.181Z,62.58
2022-09-26T21:48:54.024Z,62.25
2022-09-26T21:51:21.540Z,62.15
2022-09-26T21:53:49.509Z,62.37
2022-09-26T21:56:17.607Z,62.79
2022-09-26T21:58:45.854Z,62.14
2022-09-26T22:01:14.166Z,62.39
2022-09-26T22:03:41.557Z,63.02
2022-09-26T22:06:11.773Z,63.32
2022-09-26T22:08:39.435Z,63.56
2022-09-26T22:11:07.559Z,64.19
2022-09-26T22:13:35.075Z,63.38
2022-09-26T22:16:08.657Z,62.90
2022-09-26T22:18:35.962Z,63.50
2022-09-26T22:21:04.447Z,62.42
2022-09-26T22:23:34.227Z,62.94
2022-09-26T22:26:01.256Z,62.98
2022-09-26T22:28:28.232Z,63.50
2022-09-26T22:30:55.530Z,63.97
2022-09-26T22:33:22.888Z,63.34
2022-09-26T22:35:50.107Z,62.81
2022-09-26T22:38:18.060Z,63.17
2022-09-26T22:40:45.755Z,62.15
2022-09-26T22:43:12.870Z,61.99
2022-09-26T22:45:39.659Z,64.00
2022-09-26T22:48:06.718Z,63.58
2022-09-26T22:50:33.514Z,62.99
2022-09-26T22:53:00.368Z,62.66
2022-09-26T22:55:27.633Z,63.08
2022-09-26T22:57:54.389Z,63.05
2022-09-26T23:00:21.255Z,63.37
2022-09-26T23:02:48.769Z,63.42
2022-09-26T23:05:15.664Z,63.19
2022-09-26T23:07:42.403Z,63.67
2022-09-26T23:10:10.453Z,63.41
2022-09-26T23:12:38.030Z,63.63
2022-09-26T23:15:04.968Z,63.64
2022-09-26T23:17:33.066Z,62.96
2022-09-26T23:19:59.749Z,62.58
2022-09-26T23:22:26.472Z,64.40
2022-09-26T23:24:53.949Z,62.82
2022-09-26T23:27:21.679Z,63.43
2022-09-26T23:29:48.449Z,63.42
2022-09-26T23:32:15.522Z,63.51
2022-09-26T23:34:43.143Z,63.09
2022-09-26T23:37:09.981Z,63.18
2022-09-26T23:39:36.990Z,63.04
2022-09-26T23:42:03.926Z,63.44
2022-09-26T23:44:32.332Z,62.53
2022-09-26T23:47:02.569Z,63.50
2022-09-26T23:49:29.329Z,63.08
2022-09-26T23:51:56.458Z,62.88
2022-09-26T23:54:23.468Z,63.07
2022-09-26T23:56:50.255Z,63.63
2022-09-26T23:59:16.971Z,63.30
